Time;durP1;ratioP1;P1;durP2;ratioP2;P2;SDS_P1;SDS_P2;PMS_P1;PMS_P2;Temp;Humidity;BMP_temperature;BMP_pressure;BME280_temperature;BME280_humidity;BME280_pressure;Samples;Min_cycle;Max_cycle;Signal;HPM_P1;HPM_P2
2023/10/18 00:01:04;;;;;;;;;;;13.90;83.90;;;;;;4197914;28;19934;-51
2023/10/18 00:03:45;;;;;;;;;;;13.90;83.20;;;;;;4204515;28;19935;-54
2023/10/18 00:06:26;;;;;;;;;;;13.90;83.70;;;;;;4187214;28;19947;-52
2023/10/18 00:12:03;;;;;;;;;;;13.80;83.80;;;;;;4203011;28;20499;-54
2023/10/18 00:14:44;;;;;;;;;;;13.80;85.10;;;;;;4184279;28;20303;-55
2023/10/18 00:17:26;;;;;;;;;;;13.80;84.40;;;;;;4187166;28;19936;-55
2023/10/18 00:20:13;;;;;;;;;;;13.80;84.50;;;;;;4169279;28;19932;-56
2023/10/18 00:22:54;;;;;;;;;;;13.80;84.60;;;;;;4188134;28;19947;-54
2023/10/18 00:25:38;;;;;;;;;;;13.80;84.60;;;;;;4186486;28;20062;-52
2023/10/18 00:28:20;;;;;;;;;;;13.80;84.60;;;;;;4194470;28;19951;-50
2023/10/18 00:31:09;;;;;;;;;;;13.80;84.60;;;;;;4195128;28;20608;-50
2023/10/18 00:33:50;;;;;;;;;;;13.70;84.60;;;;;;4172829;28;19932;-50
2023/10/18 00:36:32;;;;;;;;;;;13.70;84.70;;;;;;4186529;28;19936;-53
2023/10/18 00:39:20;;;;;;;;;;;13.80;84.80;;;;;;4201824;28;20026;-55
2023/10/18 00:42:23;;;;;;;;;;;13.70;84.50;;;;;;4189808;28;19948;-52
2023/10/18 00:45:08;;;;;;;;;;;13.70;85.20;;;;;;4185543;28;20295;-52
2023/10/18 00:47:49;;;;;;;;;;;13.70;84.50;;;;;;4187434;28;19931;-52
2023/10/18 00:50:30;;;;;;;;;;;13.70;84.30;;;;;;4204547;28;19935;-53
2023/10/18 00:53:11;;;;;;;;;;;13.70;84.60;;;;;;4187409;28;19935;-53
2023/10/18 00:55:57;;;;;;;;;;;13.70;85.60;;;;;;4187323;28;19931;-50
2023/10/18 00:58:40;;;;;;;;;;;13.70;84.80;;;;;;4190361;28;20025;-51
2023/10/18 01:01:21;;;;;;;;;;;13.70;85.00;;;;;;4185478;28;20385;-55
2023/10/18 01:04:04;;;;;;;;;;;13.60;84.90;;;;;;4203632;28;20101;-53
2023/10/18 01:06:50;;;;;;;;;;;13.60;85.00;;;;;;4170101;28;20371;-51
2023/10/18 01:09:31;;;;;;;;;;;13.60;85.00;;;;;;4175743;28;19931;-53
2023/10/18 01:12:14;;;;;;;;;;;13.60;85.00;;;;;;4187888;28;19935;-50
2023/10/18 01:14:57;;;;;;;;;;;13.60;85.30;;;;;;4189418;28;20432;-53
2023/10/18 01:17:42;;;;;;;;;;;13.60;85.40;;;;;;4186704;28;19934;-52
2023/10/18 01:20:29;;;;;;;;;;;13.60;85.60;;;;;;4188537;28;19977;-54
2023/10/18 01:23:11;;;;;;;;;;;13.60;85.70;;;;;;4204339;28;20318;-52
2023/10/18 01:25:53;;;;;;;;;;;13.60;85.70;;;;;;4202412;28;19931;-49
2023/10/18 01:28:34;;;;;;;;;;;13.60;85.70;;;;;;4204420;28;19931;-54
2023/10/18 01:31:15;;;;;;;;;;;13.60;85.80;;;;;;4206955;28;19943;-53
2023/10/18 01:33:56;;;;;;;;;;;13.60;86.80;;;;;;4204547;28;19931;-54
2023/10/18 01:36:39;;;;;;;;;;;13.60;86.00;;;;;;4207337;28;19980;-53
2023/10/18 01:39:21;;;;;;;;;;;13.60;86.00;;;;;;4207028;28;19935;-48
2023/10/18 01:42:06;;;;;;;;;;;13.60;86.10;;;;;;4207230;28;19931;-51
2023/10/18 01:44:48;;;;;;;;;;;13.60;86.20;;;;;;4204675;28;19931;-51
2023/10/18 01:47:32;;;;;;;;;;;13.60;86.20;;;;;;4205902;28;19950;-52
2023/10/18 01:50:27;;;;;;;;;;;13.60;86.20;;;;;;4205537;28;19935;-49
2023/10/18 01:53:15;;;;;;;;;;;13.60;86.20;;;;;;4189409;28;20027;-53
2023/10/18 01:55:57;;;;;;;;;;;13.60;86.20;;;;;;4187576;28;19939;-54
2023/10/18 01:58:40;;;;;;;;;;;13.60;86.30;;;;;;4189590;28;20005;-54
2023/10/18 02:01:21;;;;;;;;;;;13.50;86.30;;;;;;4185275;28;19950;-51
2023/10/18 02:04:03;;;;;;;;;;;13.60;86.40;;;;;;4197338;28;20717;-52
2023/10/18 02:06:44;;;;;;;;;;;13.50;86.40;;;;;;4198249;28;19931;-54
2023/10/18 02:09:32;;;;;;;;;;;13.50;86.30;;;;;;4198620;28;19952;-51
2023/10/18 02:12:13;;;;;;;;;;;13.50;86.40;;;;;;4189536;28;20448;-53
2023/10/18 02:14:55;;;;;;;;;;;13.50;86.40;;;;;;4189739;28;20508;-51
2023/10/18 02:17:39;;;;;;;;;;;13.50;86.40;;;;;;4173348;28;19931;-51
2023/10/18 02:20:26;;;;;;;;;;;13.50;87.30;;;;;;4173146;28;19932;-55
2023/10/18 02:23:11;;;;;;;;;;;13.50;86.40;;;;;;4174068;28;20062;-54
2023/10/18 02:25:52;;;;;;;;;;;13.50;86.40;;;;;;4172019;28;19967;-54
2023/10/18 02:28:36;;;;;;;;;;;13.50;86.40;;;;;;4173768;28;19951;-53
2023/10/18 02:31:21;;;;;;;;;;;13.50;86.40;;;;;;4186135;28;19936;-50
2023/10/18 02:34:04;;;;;;;;;;;13.50;86.40;;;;;;4176808;28;19948;-53
2023/10/18 02:36:58;;;;;;;;;;;13.50;86.40;;;;;;4171718;28;19940;-51
2023/10/18 02:39:39;;;;;;;;;;;13.50;86.40;;;;;;4183096;28;20382;-49
2023/10/18 02:42:24;;;;;;;;;;;13.50;86.90;;;;;;4196227;28;19930;-50
2023/10/18 02:45:12;;;;;;;;;;;13.50;86.40;;;;;;4189149;28;20001;-52
2023/10/18 02:47:55;;;;;;;;;;;13.40;86.40;;;;;;4194796;28;20074;-50
2023/10/18 02:50:38;;;;;;;;;;;13.40;86.40;;;;;;4172519;28;19957;-51
2023/10/18 02:53:20;;;;;;;;;;;13.50;86.50;;;;;;4174224;28;19932;-51
2023/10/18 02:56:04;;;;;;;;;;;13.40;86.50;;;;;;4182970;28;19931;-49
2023/10/18 02:58:46;;;;;;;;;;;13.40;86.50;;;;;;4182836;28;20295;-53
2023/10/18 03:01:28;;;;;;;;;;;13.40;87.40;;;;;;4179999;28;19998;-48
2023/10/18 03:04:14;;;;;;;;;;;13.40;86.60;;;;;;4173675;28;19948;-50
2023/10/18 03:06:56;;;;;;;;;;;13.40;86.60;;;;;;4172283;28;19932;-50
2023/10/18 03:09:39;;;;;;;;;;;13.40;86.60;;;;;;4171263;28;19932;-48
2023/10/18 03:12:22;;;;;;;;;;;13.40;86.60;;;;;;4172718;28;20425;-48
2023/10/18 03:15:08;;;;;;;;;;;13.30;86.60;;;;;;4173742;28;20502;-52
2023/10/18 03:17:49;;;;;;;;;;;13.40;86.30;;;;;;4173495;28;20014;-50
2023/10/18 03:20:32;;;;;;;;;;;13.30;85.60;;;;;;4205683;28;19946;-50
2023/10/18 03:23:14;;;;;;;;;;;13.30;85.80;;;;;;4191783;28;20005;-53
2023/10/18 03:25:59;;;;;;;;;;;13.30;86.10;;;;;;4193112;28;19935;-54
2023/10/18 03:28:43;;;;;;;;;;;13.30;86.20;;;;;;4194438;28;19931;-56
2023/10/18 03:31:27;;;;;;;;;;;13.30;86.20;;;;;;4187818;28;19947;-56
2023/10/18 03:34:14;;;;;;;;;;;13.30;86.50;;;;;;4189967;28;19989;-56
2023/10/18 03:36:57;;;;;;;;;;;13.20;87.50;;;;;;4188646;28;19932;-53
2023/10/18 03:39:41;;;;;;;;;;;13.20;86.70;;;;;;4173208;28;19935;-56
2023/10/18 03:42:31;;;;;;;;;;;13.20;87.60;;;;;;4191541;28;19936;-56
2023/10/18 03:45:13;;;;;;;;;;;13.20;86.80;;;;;;4188681;28;19951;-56
2023/10/18 03:47:58;;;;;;;;;;;13.20;86.90;;;;;;4199079;28;19935;-56
2023/10/18 03:50:40;;;;;;;;;;;13.20;86.90;;;;;;4187281;28;20402;-55
2023/10/18 03:53:26;;;;;;;;;;;13.20;87.00;;;;;;4190081;28;20417;-58
2023/10/18 03:56:09;;;;;;;;;;;13.20;87.00;;;;;;4191687;28;20314;-55
2023/10/18 03:58:53;;;;;;;;;;;13.20;87.00;;;;;;4171632;28;19935;-56
2023/10/18 04:01:41;;;;;;;;;;;13.20;87.00;;;;;;4171419;28;19956;-58
2023/10/18 04:04:25;;;;;;;;;;;13.20;87.00;;;;;;4174361;28;20306;-53
2023/10/18 04:07:13;;;;;;;;;;;13.20;87.10;;;;;;4187794;28;20397;-55
2023/10/18 04:10:06;;;;;;;;;;;13.20;87.90;;;;;;4189788;28;20097;-57
2023/10/18 04:12:50;;;;;;;;;;;13.10;87.00;;;;;;4187661;28;20474;-57
2023/10/18 04:15:37;;;;;;;;;;;13.20;87.10;;;;;;4187441;28;20598;-56
2023/10/18 04:18:25;;;;;;;;;;;13.20;87.10;;;;;;4180298;28;19931;-56
2023/10/18 04:21:13;;;;;;;;;;;13.10;87.00;;;;;;4187394;28;19982;-55
2023/10/18 04:23:56;;;;;;;;;;;13.20;87.00;;;;;;4180531;28;20062;-55
2023/10/18 04:26:40;;;;;;;;;;;13.10;87.00;;;;;;4187787;28;19936;-54
2023/10/18 04:29:25;;;;;;;;;;;13.10;87.00;;;;;;4187151;28;19935;-56
2023/10/18 04:32:17;;;;;;;;;;;13.10;87.10;;;;;;4187215;28;19988;-56
2023/10/18 04:34:59;;;;;;;;;;;13.10;87.10;;;;;;4174295;28;19939;-54
2023/10/18 04:37:40;;;;;;;;;;;13.10;87.10;;;;;;4186569;28;19969;-58
2023/10/18 04:40:25;;;;;;;;;;;13.10;88.00;;;;;;4185631;28;20074;-56
2023/10/18 04:43:09;;;;;;;;;;;13.10;87.10;;;;;;4204670;28;19931;-55
2023/10/18 04:45:54;;;;;;;;;;;13.00;87.20;;;;;;4177691;28;20070;-55
2023/10/18 04:49:05;;;;;;;;;;;13.10;87.30;;;;;;4171172;28;20395;-54
2023/10/18 04:51:45;;;;;;;;;;;13.10;87.40;;;;;;4170120;28;19932;-54
2023/10/18 04:54:37;;;;;;;;;;;13.10;87.40;;;;;;4174582;28;20536;-52
2023/10/18 04:57:16;;;;;;;;;;;13.10;87.50;;;;;;4170406;28;19971;-52
2023/10/18 05:00:10;;;;;;;;;;;13.10;87.40;;;;;;4170582;28;20386;-57
2023/10/18 05:02:51;;;;;;;;;;;13.10;87.40;;;;;;4170352;28;19935;-55
2023/10/18 05:05:37;;;;;;;;;;;13.10;87.40;;;;;;4185164;28;20373;-56
2023/10/18 05:08:17;;;;;;;;;;;13.00;87.60;;;;;;4189088;28;19936;-52
2023/10/18 05:11:22;;;;;;;;;;;13.00;87.00;;;;;;4191515;28;19939;-55
2023/10/18 05:13:59;;;;;;;;;;;13.00;86.90;;;;;;4191834;28;19951;-48
2023/10/18 05:16:41;;;;;;;;;;;13.00;87.10;;;;;;4202395;28;19939;-49
2023/10/18 05:19:28;;;;;;;;;;;13.00;87.20;;;;;;4204088;28;19953;-48
2023/10/18 05:22:09;;;;;;;;;;;13.00;87.30;;;;;;4204260;28;19931;-50
2023/10/18 05:24:57;;;;;;;;;;;13.00;87.40;;;;;;4179878;28;20718;-50
2023/10/18 05:27:45;;;;;;;;;;;12.90;88.30;;;;;;4198528;28;19931;-54
2023/10/18 05:30:26;;;;;;;;;;;12.90;87.40;;;;;;4187935;28;19932;-56
2023/10/18 05:33:15;;;;;;;;;;;13.00;87.40;;;;;;4188185;28;19977;-54
2023/10/18 05:36:03;;;;;;;;;;;13.00;86.80;;;;;;4200985;28;19931;-57
2023/10/18 05:38:50;;;;;;;;;;;13.00;86.40;;;;;;4189821;28;19939;-51
2023/10/18 05:41:36;;;;;;;;;;;13.00;86.60;;;;;;4188763;28;19931;-51
2023/10/18 05:44:17;;;;;;;;;;;12.90;87.20;;;;;;4192227;28;19977;-50
2023/10/18 05:46:59;;;;;;;;;;;12.90;86.00;;;;;;4203102;28;20040;-55
2023/10/18 05:49:42;;;;;;;;;;;12.90;86.50;;;;;;4172447;28;19932;-56
2023/10/18 05:52:36;;;;;;;;;;;12.90;86.80;;;;;;4172522;28;19936;-55
2023/10/18 05:55:17;;;;;;;;;;;12.90;86.80;;;;;;4172137;28;20344;-56
2023/10/18 05:57:59;;;;;;;;;;;12.90;86.60;;;;;;4185802;28;19936;-56
2023/10/18 06:00:41;;;;;;;;;;;12.90;86.80;;;;;;4185150;28;19990;-51
2023/10/18 06:03:22;;;;;;;;;;;12.80;87.10;;;;;;4172852;28;19932;-52
2023/10/18 06:06:05;;;;;;;;;;;12.80;87.40;;;;;;4189773;28;20409;-54
2023/10/18 06:08:46;;;;;;;;;;;12.80;87.30;;;;;;4189972;28;19936;-55
2023/10/18 06:11:29;;;;;;;;;;;12.80;87.50;;;;;;4186960;28;19931;-52
2023/10/18 06:14:16;;;;;;;;;;;12.80;87.80;;;;;;4172980;28;19950;-54
2023/10/18 06:17:06;;;;;;;;;;;12.80;88.30;;;;;;4187916;28;20013;-50
2023/10/18 06:19:50;;;;;;;;;;;12.80;88.40;;;;;;4200814;28;19972;-47
2023/10/18 06:22:39;;;;;;;;;;;12.80;87.90;;;;;;4177193;28;19935;-57
2023/10/18 06:25:26;;;;;;;;;;;12.80;87.80;;;;;;4204985;28;20496;-54
2023/10/18 06:28:08;;;;;;;;;;;12.80;88.50;;;;;;4186370;28;19936;-54
2023/10/18 06:30:51;;;;;;;;;;;12.80;89.70;;;;;;4182271;28;19986;-52
2023/10/18 06:33:35;;;;;;;;;;;12.80;90.20;;;;;;4174421;28;20013;-50
2023/10/18 06:36:18;;;;;;;;;;;12.80;90.20;;;;;;4177418;28;19982;-53
2023/10/18 06:39:01;;;;;;;;;;;12.80;89.40;;;;;;4195373;28;19963;-52
2023/10/18 06:41:43;;;;;;;;;;;12.80;88.70;;;;;;4172849;28;20295;-51
2023/10/18 06:44:27;;;;;;;;;;;12.80;88.80;;;;;;4182420;28;20050;-49
2023/10/18 06:47:13;;;;;;;;;;;12.80;89.30;;;;;;4188844;28;19967;-54
2023/10/18 06:49:58;;;;;;;;;;;12.80;90.30;;;;;;4192245;28;19935;-51
2023/10/18 06:52:55;;;;;;;;;;;12.80;89.80;;;;;;4172752;28;19932;-52
2023/10/18 06:55:43;;;;;;;;;;;12.70;89.50;;;;;;4191235;28;19934;-49
2023/10/18 06:58:41;;;;;;;;;;;12.70;89.70;;;;;;4184983;28;19931;-49
2023/10/18 07:01:26;;;;;;;;;;;12.70;89.60;;;;;;4191118;28;20012;-50
2023/10/18 07:04:16;;;;;;;;;;;12.70;89.50;;;;;;4203031;28;19942;-51
2023/10/18 07:06:57;;;;;;;;;;;12.70;89.20;;;;;;4203379;28;20000;-50
2023/10/18 07:09:38;;;;;;;;;;;12.60;89.10;;;;;;4188388;28;19978;-51
2023/10/18 07:12:26;;;;;;;;;;;12.60;88.60;;;;;;4196993;28;19931;-52
2023/10/18 07:15:09;;;;;;;;;;;12.60;88.50;;;;;;4171354;28;20291;-50
2023/10/18 07:17:52;;;;;;;;;;;12.60;88.30;;;;;;4175680;28;19931;-50
2023/10/18 07:20:34;;;;;;;;;;;12.60;89.10;;;;;;4171681;28;19931;-48
2023/10/18 07:23:21;;;;;;;;;;;12.60;88.50;;;;;;4180994;28;20325;-48
2023/10/18 07:26:02;;;;;;;;;;;12.60;88.30;;;;;;4184567;28;19932;-50
2023/10/18 07:28:50;;;;;;;;;;;12.50;88.20;;;;;;4204741;28;19932;-50
2023/10/18 07:31:35;;;;;;;;;;;12.60;88.00;;;;;;4204532;28;19970;-53
2023/10/18 07:34:28;;;;;;;;;;;12.50;87.80;;;;;;4197254;28;19935;-54
2023/10/18 07:37:19;;;;;;;;;;;12.50;87.60;;;;;;4196404;28;19931;-54
2023/10/18 07:40:08;;;;;;;;;;;12.50;86.80;;;;;;4203153;28;19931;-52
2023/10/18 07:42:51;;;;;;;;;;;12.50;86.90;;;;;;4204823;28;20068;-51
2023/10/18 07:45:34;;;;;;;;;;;12.50;86.80;;;;;;4187196;28;19931;-52
2023/10/18 07:48:16;;;;;;;;;;;12.50;86.90;;;;;;4173764;28;20294;-53
2023/10/18 07:50:58;;;;;;;;;;;12.50;87.20;;;;;;4170188;28;20023;-55
2023/10/18 07:53:39;;;;;;;;;;;12.50;87.40;;;;;;4183991;28;19931;-50
2023/10/18 07:56:20;;;;;;;;;;;12.50;87.20;;;;;;4192016;28;19936;-50
2023/10/18 08:02:23;;;;;;;;;;;12.40;86.70;;;;;;4199044;28;20350;-54
2023/10/18 08:05:07;;;;;;;;;;;12.40;86.80;;;;;;4186597;28;19984;-50
2023/10/18 08:07:51;;;;;;;;;;;12.40;86.80;;;;;;4186750;28;19947;-51
2023/10/18 08:10:33;;;;;;;;;;;12.40;87.70;;;;;;4203733;28;20061;-51
2023/10/18 08:13:16;;;;;;;;;;;12.40;86.80;;;;;;4186569;28;19934;-54
2023/10/18 08:16:01;;;;;;;;;;;12.40;87.00;;;;;;4182896;28;20357;-55
2023/10/18 08:18:43;;;;;;;;;;;12.40;87.20;;;;;;4203298;28;20089;-49
2023/10/18 08:21:28;;;;;;;;;;;12.40;87.50;;;;;;4192355;28;19935;-53
2023/10/18 08:24:08;;;;;;;;;;;12.40;87.70;;;;;;4203475;28;20394;-53
2023/10/18 08:26:51;;;;;;;;;;;12.50;88.00;;;;;;4203682;28;19972;-51
2023/10/18 08:29:34;;;;;;;;;;;12.50;88.10;;;;;;4202716;28;20057;-51
2023/10/18 08:32:16;;;;;;;;;;;12.50;88.20;;;;;;4203502;28;19931;-53
2023/10/18 08:35:07;;;;;;;;;;;12.50;88.50;;;;;;4203147;28;19931;-49
2023/10/18 08:37:48;;;;;;;;;;;12.50;89.20;;;;;;4203900;28;20397;-49
2023/10/18 08:40:36;;;;;;;;;;;12.50;89.50;;;;;;4170540;28;19932;-53
2023/10/18 08:43:24;;;;;;;;;;;12.60;89.60;;;;;;4170561;28;20299;-51
2023/10/18 08:46:05;;;;;;;;;;;12.60;89.50;;;;;;4185112;28;19931;-53
2023/10/18 08:48:50;;;;;;;;;;;12.60;89.40;;;;;;4187151;28;19974;-54
2023/10/18 08:51:32;;;;;;;;;;;12.60;89.40;;;;;;4187838;28;20605;-53
2023/10/18 08:54:18;;;;;;;;;;;12.60;89.30;;;;;;4202179;28;19971;-50
2023/10/18 08:57:06;;;;;;;;;;;12.60;89.20;;;;;;4191428;28;20070;-52
2023/10/18 08:59:47;;;;;;;;;;;12.60;89.10;;;;;;4171358;28;19935;-53
2023/10/18 09:02:39;;;;;;;;;;;12.60;89.00;;;;;;4171671;28;20303;-54
2023/10/18 09:05:22;;;;;;;;;;;12.60;89.00;;;;;;4168349;28;20043;-50
2023/10/18 09:08:05;;;;;;;;;;;12.60;89.00;;;;;;4173448;28;19935;-50
2023/10/18 09:10:49;;;;;;;;;;;12.60;89.00;;;;;;4173761;28;19971;-53
2023/10/18 09:13:37;;;;;;;;;;;12.70;89.00;;;;;;4176707;28;19932;-51
2023/10/18 09:16:19;;;;;;;;;;;12.60;88.90;;;;;;4180845;28;19935;-50
2023/10/18 09:19:01;;;;;;;;;;;12.70;89.80;;;;;;4187436;28;19973;-53
2023/10/18 09:21:50;;;;;;;;;;;12.60;88.80;;;;;;4187516;28;19931;-51
2023/10/18 09:24:34;;;;;;;;;;;12.70;88.80;;;;;;4203980;28;19932;-51
2023/10/18 09:27:14;;;;;;;;;;;12.70;88.70;;;;;;4170216;28;19932;-52
2023/10/18 09:29:56;;;;;;;;;;;12.70;89.30;;;;;;4169524;28;19982;-51
2023/10/18 09:32:37;;;;;;;;;;;12.70;88.10;;;;;;4186353;28;19931;-49
2023/10/18 09:35:26;;;;;;;;;;;12.70;87.90;;;;;;4195843;28;19950;-47
2023/10/18 09:38:08;;;;;;;;;;;12.70;88.20;;;;;;4203432;28;19980;-52
2023/10/18 09:40:50;;;;;;;;;;;12.70;88.00;;;;;;4206142;28;19935;-47
2023/10/18 09:43:32;;;;;;;;;;;12.70;87.80;;;;;;4206664;28;19931;-47
2023/10/18 09:46:14;;;;;;;;;;;12.70;87.70;;;;;;4206267;28;19967;-54
2023/10/18 09:48:57;;;;;;;;;;;12.70;87.50;;;;;;4206829;28;19938;-49
2023/10/18 09:51:43;;;;;;;;;;;12.70;88.20;;;;;;4183968;28;19973;-47
2023/10/18 09:54:24;;;;;;;;;;;12.70;89.20;;;;;;4190212;28;19936;-48
2023/10/18 09:57:07;;;;;;;;;;;12.70;89.40;;;;;;4172168;28;19935;-52
2023/10/18 09:59:48;;;;;;;;;;;12.70;89.40;;;;;;4177461;28;19932;-50
2023/10/18 10:02:30;;;;;;;;;;;12.80;89.50;;;;;;4184997;28;19931;-49
2023/10/18 10:05:24;;;;;;;;;;;12.70;89.50;;;;;;4182847;28;19931;-50
2023/10/18 10:08:07;;;;;;;;;;;12.80;89.50;;;;;;4179235;28;20436;-51
2023/10/18 10:10:49;;;;;;;;;;;12.70;89.50;;;;;;4190065;28;19931;-49
2023/10/18 10:13:37;;;;;;;;;;;12.80;89.60;;;;;;4180920;28;20034;-53
2023/10/18 10:16:20;;;;;;;;;;;12.80;89.40;;;;;;4186318;28;19947;-52
2023/10/18 10:19:04;;;;;;;;;;;12.80;89.30;;;;;;4190331;28;20614;-53
2023/10/18 10:21:45;;;;;;;;;;;12.80;89.50;;;;;;4190286;28;19932;-49
2023/10/18 10:24:33;;;;;;;;;;;12.80;89.30;;;;;;4190015;28;20007;-53
2023/10/18 10:27:28;;;;;;;;;;;12.80;89.30;;;;;;4202176;28;19931;-52
2023/10/18 10:30:25;;;;;;;;;;;12.80;89.30;;;;;;4186232;28;19951;-50
2023/10/18 10:33:11;;;;;;;;;;;12.90;89.40;;;;;;4174537;28;21583;-53
2023/10/18 10:35:53;;;;;;;;;;;12.90;89.20;;;;;;4172871;28;20063;-53
2023/10/18 10:38:34;;;;;;;;;;;13.00;89.10;;;;;;4172048;28;19944;-51
2023/10/18 10:41:20;;;;;;;;;;;13.00;89.20;;;;;;4173737;28;19982;-50
2023/10/18 10:44:07;;;;;;;;;;;13.00;90.00;;;;;;4171656;28;19936;-50
2023/10/18 10:46:53;;;;;;;;;;;13.00;88.80;;;;;;4188680;28;19979;-49
2023/10/18 10:49:49;;;;;;;;;;;13.00;88.90;;;;;;4188958;28;20339;-52
2023/10/18 10:52:30;;;;;;;;;;;13.00;89.70;;;;;;4171153;28;20394;-49
2023/10/18 10:55:18;;;;;;;;;;;13.00;88.80;;;;;;4202403;28;19931;-52
2023/10/18 10:58:02;;;;;;;;;;;13.10;88.40;;;;;;4206057;28;19969;-52
2023/10/18 11:01:02;;;;;;;;;;;13.10;88.40;;;;;;4206336;28;19951;-53
2023/10/18 11:03:54;;;;;;;;;;;13.10;89.40;;;;;;4170522;28;19993;-49
2023/10/18 11:06:42;;;;;;;;;;;13.10;88.50;;;;;;4175175;28;19931;-50
2023/10/18 11:09:27;;;;;;;;;;;13.10;88.50;;;;;;4188831;28;20001;-51
2023/10/18 11:12:10;;;;;;;;;;;13.10;88.40;;;;;;4189037;28;19977;-53
2023/10/18 11:14:52;;;;;;;;;;;13.10;88.30;;;;;;4204079;28;19935;-54
2023/10/18 11:17:35;;;;;;;;;;;13.20;88.10;;;;;;4196090;28;19991;-50
2023/10/18 11:20:21;;;;;;;;;;;13.20;88.10;;;;;;4205847;28;20485;-51
2023/10/18 11:23:02;;;;;;;;;;;13.20;89.00;;;;;;4181935;28;19982;-54
2023/10/18 11:25:42;;;;;;;;;;;13.20;88.10;;;;;;4187964;28;20079;-52
2023/10/18 11:28:28;;;;;;;;;;;13.20;88.90;;;;;;4187860;28;19977;-53
2023/10/18 11:31:09;;;;;;;;;;;13.30;88.20;;;;;;4188554;28;20086;-53
2023/10/18 11:33:57;;;;;;;;;;;13.30;87.90;;;;;;4185942;28;19932;-53
2023/10/18 11:36:40;;;;;;;;;;;13.30;87.70;;;;;;4176075;28;20311;-55
2023/10/18 11:39:23;;;;;;;;;;;13.30;87.80;;;;;;4172165;28;19932;-59
2023/10/18 11:42:06;;;;;;;;;;;13.30;87.00;;;;;;4186027;28;19934;-59
2023/10/18 11:44:53;;;;;;;;;;;13.30;87.20;;;;;;4202135;28;19935;-59
2023/10/18 11:47:34;;;;;;;;;;;13.30;87.20;;;;;;4204018;28;19935;-52
2023/10/18 11:50:15;;;;;;;;;;;13.30;87.30;;;;;;4205053;28;19931;-54
2023/10/18 11:53:07;;;;;;;;;;;13.30;87.30;;;;;;4203739;28;20391;-54
2023/10/18 11:55:55;;;;;;;;;;;13.30;87.50;;;;;;4204667;28;19954;-53
2023/10/18 11:58:37;;;;;;;;;;;13.30;87.50;;;;;;4205225;28;19970;-52
2023/10/18 12:01:18;;;;;;;;;;;13.40;87.20;;;;;;4203691;28;20084;-54
2023/10/18 12:04:00;;;;;;;;;;;13.40;87.20;;;;;;4196331;28;19934;-51
2023/10/18 12:06:41;;;;;;;;;;;13.40;87.40;;;;;;4202201;28;19942;-53
2023/10/18 12:09:26;;;;;;;;;;;13.40;87.40;;;;;;4202805;28;19952;-55
2023/10/18 12:12:07;;;;;;;;;;;13.40;87.50;;;;;;4203596;28;19935;-51
2023/10/18 12:14:48;;;;;;;;;;;13.40;86.30;;;;;;4183478;28;20291;-53
2023/10/18 12:17:29;;;;;;;;;;;13.40;86.60;;;;;;4188133;28;20062;-50
2023/10/18 12:20:10;;;;;;;;;;;13.40;86.50;;;;;;4187847;28;19943;-53
2023/10/18 12:22:51;;;;;;;;;;;13.40;86.80;;;;;;4187856;28;20013;-53
2023/10/18 12:25:33;;;;;;;;;;;13.50;87.00;;;;;;4189479;28;19948;-59
2023/10/18 12:28:15;;;;;;;;;;;13.40;86.80;;;;;;4203952;28;20320;-59
2023/10/18 12:31:00;;;;;;;;;;;13.50;87.50;;;;;;4188627;28;20031;-59
2023/10/18 12:33:41;;;;;;;;;;;13.40;86.10;;;;;;4193823;28;20090;-59
2023/10/18 12:36:23;;;;;;;;;;;13.50;86.20;;;;;;4187767;28;20402;-59
2023/10/18 12:39:09;;;;;;;;;;;13.50;85.20;;;;;;4204298;28;20009;-59
2023/10/18 12:41:53;;;;;;;;;;;13.50;85.40;;;;;;4174262;28;19935;-59
2023/10/18 12:44:39;;;;;;;;;;;13.50;85.60;;;;;;4170855;28;19947;-59
2023/10/18 12:47:20;;;;;;;;;;;13.50;85.60;;;;;;4175479;28;20002;-59
2023/10/18 12:50:03;;;;;;;;;;;13.50;85.70;;;;;;4170811;28;19931;-59
2023/10/18 12:52:46;;;;;;;;;;;13.50;86.10;;;;;;4171341;28;19948;-59
2023/10/18 12:55:32;;;;;;;;;;;13.50;87.00;;;;;;4176246;28;19936;-59
2023/10/18 12:58:19;;;;;;;;;;;13.50;86.00;;;;;;4172081;28;19970;-58
2023/10/18 13:01:05;;;;;;;;;;;13.50;85.90;;;;;;4198268;28;20367;-59
2023/10/18 13:03:56;;;;;;;;;;;13.50;85.90;;;;;;4202770;28;20020;-50
2023/10/18 13:06:42;;;;;;;;;;;13.60;86.10;;;;;;4198761;28;20351;-54
2023/10/18 13:09:23;;;;;;;;;;;13.60;86.10;;;;;;4191029;28;20093;-51
2023/10/18 13:12:07;;;;;;;;;;;13.60;86.10;;;;;;4201290;28;19931;-50
2023/10/18 13:14:50;;;;;;;;;;;13.60;84.80;;;;;;4196098;28;20062;-51
2023/10/18 13:17:32;;;;;;;;;;;13.60;85.50;;;;;;4206119;28;20443;-52
2023/10/18 13:20:15;;;;;;;;;;;13.60;86.00;;;;;;4206527;28;20069;-51
2023/10/18 13:22:56;;;;;;;;;;;13.60;86.20;;;;;;4207390;28;19979;-49
2023/10/18 13:25:38;;;;;;;;;;;13.60;87.10;;;;;;4207372;28;19935;-54
2023/10/18 13:28:33;;;;;;;;;;;13.60;86.30;;;;;;4206301;28;19935;-54
2023/10/18 13:31:18;;;;;;;;;;;13.60;86.30;;;;;;4205597;28;19931;-51
2023/10/18 13:34:01;;;;;;;;;;;13.60;86.20;;;;;;4195571;28;19950;-49
2023/10/18 13:36:41;;;;;;;;;;;13.60;85.70;;;;;;4173289;28;19936;-51
2023/10/18 13:39:23;;;;;;;;;;;13.70;85.70;;;;;;4196048;28;19935;-53
2023/10/18 13:42:05;;;;;;;;;;;13.60;84.70;;;;;;4206781;28;19953;-53
2023/10/18 13:44:46;;;;;;;;;;;13.60;84.90;;;;;;4206624;28;20012;-50
2023/10/18 13:47:28;;;;;;;;;;;13.70;85.60;;;;;;4206870;28;19976;-52
2023/10/18 13:50:10;;;;;;;;;;;13.60;85.60;;;;;;4206980;28;19947;-52
2023/10/18 13:52:51;;;;;;;;;;;13.70;85.90;;;;;;4206034;28;20732;-51
2023/10/18 13:55:32;;;;;;;;;;;13.60;86.80;;;;;;4206526;28;20314;-52
2023/10/18 13:58:14;;;;;;;;;;;13.70;86.20;;;;;;4194517;28;19931;-54
2023/10/18 14:00:55;;;;;;;;;;;13.70;86.00;;;;;;4202133;28;20390;-55
2023/10/18 14:03:42;;;;;;;;;;;13.70;85.40;;;;;;4184430;28;19993;-52
2023/10/18 14:06:24;;;;;;;;;;;13.70;85.80;;;;;;4182883;28;20297;-53
2023/10/18 14:09:16;;;;;;;;;;;13.70;85.60;;;;;;4205945;28;19931;-55
2023/10/18 14:12:00;;;;;;;;;;;13.70;86.00;;;;;;4202774;28;19931;-49
2023/10/18 14:14:42;;;;;;;;;;;13.70;86.20;;;;;;4204874;28;19935;-51
2023/10/18 14:17:23;;;;;;;;;;;13.70;86.00;;;;;;4206567;28;19935;-51
2023/10/18 14:20:10;;;;;;;;;;;13.80;85.80;;;;;;4183999;28;19979;-53
2023/10/18 14:22:56;;;;;;;;;;;13.80;85.60;;;;;;4174621;28;19931;-51
2023/10/18 14:25:37;;;;;;;;;;;13.80;85.80;;;;;;4172489;28;19971;-51
2023/10/18 14:28:19;;;;;;;;;;;13.80;85.80;;;;;;4175013;28;19940;-50
2023/10/18 14:30:59;;;;;;;;;;;13.80;85.80;;;;;;4202424;28;19931;-50
2023/10/18 14:33:40;;;;;;;;;;;13.80;85.80;;;;;;4202996;28;20378;-53
2023/10/18 14:36:32;;;;;;;;;;;13.80;85.50;;;;;;4199327;28;19935;-50
2023/10/18 14:39:13;;;;;;;;;;;13.80;85.60;;;;;;4198025;28;19934;-53
2023/10/18 14:41:57;;;;;;;;;;;13.80;85.30;;;;;;4193530;28;19976;-53
2023/10/18 14:44:38;;;;;;;;;;;13.80;85.50;;;;;;4195853;28;19936;-52
2023/10/18 14:47:19;;;;;;;;;;;13.80;85.20;;;;;;4203753;28;19931;-51
2023/10/18 14:50:03;;;;;;;;;;;13.80;85.20;;;;;;4176397;28;19947;-54
2023/10/18 14:52:45;;;;;;;;;;;13.80;85.30;;;;;;4189227;28;19967;-46
2023/10/18 14:55:28;;;;;;;;;;;13.80;85.50;;;;;;4179647;28;20390;-47
2023/10/18 14:58:09;;;;;;;;;;;13.80;85.70;;;;;;4183901;28;19944;-48
2023/10/18 15:00:49;;;;;;;;;;;13.90;85.60;;;;;;4189453;28;20440;-51
2023/10/18 15:03:30;;;;;;;;;;;14.20;84.90;;;;;;4188819;28;19936;-50
2023/10/18 15:06:16;;;;;;;;;;;14.60;83.00;;;;;;4199135;28;20711;-48
2023/10/18 15:08:59;;;;;;;;;;;15.30;80.40;;;;;;4188664;28;20379;-48
2023/10/18 15:11:40;;;;;;;;;;;15.90;77.70;;;;;;4194163;28;19980;-47
2023/10/18 15:14:21;;;;;;;;;;;16.50;74.80;;;;;;4204897;28;20474;-51
2023/10/18 15:17:03;;;;;;;;;;;17.10;71.80;;;;;;4203990;28;20005;-49
2023/10/18 15:19:44;;;;;;;;;;;17.80;69.60;;;;;;4202183;28;19938;-51
2023/10/18 15:22:26;;;;;;;;;;;18.40;67.30;;;;;;4187540;28;20482;-52
2023/10/18 15:25:09;;;;;;;;;;;18.90;64.80;;;;;;4186681;28;19963;-51
2023/10/18 15:27:52;;;;;;;;;;;19.50;62.90;;;;;;4187223;28;19931;-48
2023/10/18 15:30:33;;;;;;;;;;;19.90;60.90;;;;;;4190723;28;19936;-53
2023/10/18 15:33:19;;;;;;;;;;;20.30;59.50;;;;;;4189969;28;19981;-49
2023/10/18 15:36:00;;;;;;;;;;;20.70;58.70;;;;;;4198237;28;19930;-48
2023/10/18 15:38:42;;;;;;;;;;;21.00;58.40;;;;;;4195182;28;19934;-48
2023/10/18 15:41:25;;;;;;;;;;;21.20;57.40;;;;;;4197556;28;20386;-48
2023/10/18 15:44:10;;;;;;;;;;;21.40;57.50;;;;;;4191210;28;20074;-50
2023/10/18 15:46:50;;;;;;;;;;;21.40;57.20;;;;;;4175384;28;19932;-52
2023/10/18 15:49:32;;;;;;;;;;;21.50;57.00;;;;;;4187443;28;20070;-47
2023/10/18 15:52:13;;;;;;;;;;;21.50;57.00;;;;;;4171094;28;19932;-51
2023/10/18 15:54:54;;;;;;;;;;;21.40;57.40;;;;;;4187953;28;19958;-50
2023/10/18 15:57:38;;;;;;;;;;;21.20;57.20;;;;;;4188169;28;20655;-50
2023/10/18 16:00:22;;;;;;;;;;;21.00;57.30;;;;;;4188086;28;20070;-48